Flight Track Log - Related Links

Times and Time Zones

All times are in EDT time to prevent confusion due to time zone crossing. See the KAP720 flight status page for this flight to view local times or setup timezone preferences in your user account.

Time Position Orientation Groundspeed Altitude Reporting Facility
EDT Latitude Longitude Course Direction KTS MPH feet Rate Location/Type
Thu 07:31:39 AM 44.5589 -75.3158 68° East 160 184 3,500  Level Boston Center
Thu 07:32:39 AM 44.5283 -75.2881 147° Southeast 155 178 4,000 600 Climbing Boston Center
Thu 07:33:39 AM 44.4978 -75.2575 144° Southeast 149 171 4,700 600 Climbing Boston Center
Thu 07:34:39 AM 44.4631 -75.2325 153° Southeast 144 166 5,200 550 Climbing Boston Center
Thu 07:35:39 AM 44.4281 -75.2078 153° Southeast 137 158 5,800 650 Climbing Boston Center
Thu 07:36:00 AM 44.7792 -75.1146 68° East  Level FlightAware Approximate
Thu 07:36:39 AM 44.3975 -75.1831 150° Southeast 137 158 6,500  Level Boston Center
Thu 07:37:39 AM 44.3647 -75.1525 146° Southeast 137 158 7,000 250 Climbing Boston Center
Thu 07:38:39 AM 44.3303 -75.1189 145° Southeast 137 158 7,000  Level Boston Center
Thu 07:39:39 AM 44.2994 -75.0944 150° Southeast 143 165 7,000  Level Boston Center
Thu 07:40:39 AM 44.2525 -75.0544 149° Southeast 154 177 7,000  Level Boston Center
Thu 07:41:39 AM 44.2136 -75.0181 146° Southeast 165 190 7,000  Level Boston Center
Thu 07:42:39 AM 44.1789 -74.9875 148° Southeast 165 190 7,000  Level Boston Center
Thu 07:43:39 AM 44.1381 -74.9569 152° Southeast 165 190 7,000  Level Boston Center
Thu 07:44:39 AM 44.1011 -74.9236 147° Southeast 165 190 7,000  Level Boston Center
Thu 07:45:39 AM 44.0664 -74.8933 148° Southeast 165 190 7,000 50 Level Boston Center
Thu 07:46:39 AM 44.0294 -74.8600 147° Southeast 165 190 7,100  Climbing Boston Center
Thu 07:47:39 AM 43.9928 -74.8297 149° Southeast 159 183 7,000 -50 Descending Boston Center
Thu 07:48:39 AM 43.9536 -74.8019 153° Southeast 159 183 7,000 -50 Level Boston Center
Thu 07:49:39 AM 43.9208 -74.7719 147° Southeast 152 175 6,900 -50 Descending Boston Center
Thu 07:50:39 AM 43.8861 -74.7417 148° Southeast 152 175 6,900  Level Boston Center
Thu 07:51:39 AM 43.8492 -74.7117 150° Southeast 152 175 6,900  Level Boston Center
Thu 07:52:39 AM 43.8164 -74.6817 147° Southeast 146 168 6,900  Level Boston Center
Thu 07:53:39 AM 43.7817 -74.6514 148° Southeast 146 168 6,900  Level Boston Center
Thu 07:54:39 AM 43.7447 -74.6242 152° Southeast 146 168 6,900 50 Level Boston Center
Thu 07:55:39 AM 43.7117 -74.5972 149° Southeast 146 168 7,000 50 Climbing Boston Center
Thu 07:56:39 AM 43.6769 -74.5672 148° Southeast 146 168 7,000 -50 Level Boston Center
Thu 07:57:39 AM 43.6400 -74.5372 150° Southeast 146 168 6,900 -50 Descending Boston Center
Thu 07:58:39 AM 43.6050 -74.5044 146° Southeast 141 162 6,900  Level Boston Center
Thu 07:59:39 AM 43.5703 -74.4775 151° Southeast 141 162 6,900 50 Level Boston Center
Thu 08:00:39 AM 43.5331 -74.4478 150° Southeast 141 162 7,000  Climbing Boston Center
Thu 08:01:39 AM 43.4983 -74.4150 146° Southeast 146 168 6,900 -51 Descending Boston Center
Thu 08:02:37 AM 43.4633 -74.3881 151° Southeast 152 175 6,900 68 Level Boston Center
Thu 08:03:07 AM 43.4428 -74.3731 152° Southeast 152 175 7,000 97 Climbing Boston Center
Thu 08:03:39 AM 43.4264 -74.3583 147° Southeast 146 168 7,000 -98 Level Boston Center
Thu 08:04:08 AM 43.4036 -74.3406 150° Southeast 154 177 6,900 -83 Descending Boston Center
Thu 08:04:51 AM 43.3872 -74.3286 152° Southeast 158 182 6,900  Level Boston Center
Thu 08:05:08 AM 43.3667 -74.3108 148° Southeast 156 180 6,900  Level Boston Center
Thu 08:05:51 AM 43.3400 -74.2842 144° Southeast 158 182 6,900 98 Level Boston Center
Thu 08:06:09 AM 43.3317 -74.2783 153° Southeast 154 177 7,000 100 Climbing Boston Center
Thu 08:06:51 AM 43.3050 -74.2547 147° Southeast 158 182 7,000  Level Boston Center
Thu 08:07:10 AM 43.2928 -74.2458 152° Southeast 155 178 7,000  Level Boston Center
Thu 08:07:51 AM 43.2658 -74.2250 151° Southeast 158 182 7,000 -100 Level Boston Center
Thu 08:08:10 AM 43.2556 -74.2161 148° Southeast 155 178 6,900  Descending Boston Center
Thu 08:08:51 AM 43.2308 -74.1956 149° Southeast 158 182 7,000 98 Climbing Boston Center
Thu 08:09:11 AM 43.2206 -74.1867 148° Southeast 155 178 7,000 -300 Level Boston Center
Thu 08:09:51 AM 43.1919 -74.1631 149° Southeast 158 182 6,700 -537 Descending Boston Center
Thu 08:10:18 AM 43.1753 -74.1483 147° Southeast 168 193 6,400 -600 Descending Boston Center
Thu 08:10:51 AM 43.1506 -74.1306 152° Southeast 164 189 6,100 -500 Descending Boston Center
Thu 08:11:18 AM 43.1342 -74.1158 147° Southeast 177 204 5,900 -500 Descending Boston Center
Thu 08:11:51 AM 43.1075 -74.0953 151° Southeast 175 201 5,600 -590 Descending Boston Center
Thu 08:12:19 AM 43.0889 -74.0833 155° Southeast 175 201 5,300 -600 Descending Boston Center
Thu 08:12:51 AM 43.0661 -74.0600 143° Southeast 175 201 5,000 -500 Descending Boston Center
Thu 08:13:19 AM 43.0497 -74.0453 147° Southeast 174 200 4,800 -400 Descending Boston Center
Thu 08:13:51 AM 43.0272 -74.0250 147° Southeast 175 201 4,600 -492 Descending Boston Center
Thu 08:14:20 AM 43.0086 -74.0103 150° Southeast 173 199 4,300 -700 Descending Boston Center
Thu 08:14:51 AM 42.9858 -73.9928 151° Southeast 175 201 3,900 -590 Descending Boston Center
Thu 08:15:21 AM 42.9631 -73.9778 154° Southeast 174 200 3,700 -500 Descending Boston Center
Thu 08:15:51 AM 42.9447 -73.9575 141° Southeast 181 208 3,400 -500 Descending Boston Center
Thu 08:16:21 AM 42.9303 -73.9344 131° Southeast 173 199 3,200 -400 Descending Boston Center
Thu 08:16:51 AM 42.9139 -73.9142 138° Southeast 169 194 3,000 -492 Descending Boston Center
Thu 08:17:22 AM 42.8975 -73.8911 134° Southeast 166 191 2,700 -635 Descending Boston Center
Thu 08:18:16 AM 42.8669 -73.8508 136° Southeast 169 194 2,100 -496 Descending Boston Center
Thu 08:19:23 AM 42.8297 -73.8131 143° Southeast 147 169 1,700 -563 Descending Boston Center
Thu 08:20:24 AM 42.7922 -73.8067 173° South 121 139 900 -787 Descending Boston Center
Thu 08:22:00 AM 42.7491 -73.8020 160° South  Level Estimated
Thu 08:29:00 AM 42.7491 -73.8020 160° South  Level Estimated
Thu 08:30:00 AM 42.7491 -73.8020 160° South  Level Estimated
Thu 08:31:00 AM 42.7491 -73.8020 160° South  Level Estimated

Login

Don't have an account? Register now (free) for customized features, flight alerts, and more!